createdAt,value
2022-11-17T00:01:19.633Z,100152.56
2022-11-17T00:03:49.786Z,100156.66
2022-11-17T00:06:17.802Z,100154.34
2022-11-17T00:08:44.209Z,100152.16
2022-11-17T00:11:10.703Z,100155.53
2022-11-17T00:13:55.846Z,100152.22
2022-11-17T00:16:22.538Z,100150.03
2022-11-17T00:19:08.317Z,100151.63
2022-11-17T00:21:35.066Z,100152.06
2022-11-17T00:24:01.546Z,100149.34
2022-11-17T00:26:30.249Z,100146.50
2022-11-17T00:28:58.790Z,100148.16
2022-11-17T00:31:45.052Z,100149.25
2022-11-17T00:34:17.285Z,100140.41
2022-11-17T00:36:46.744Z,100134.78
2022-11-17T00:39:15.974Z,100126.34
2022-11-17T00:41:42.618Z,100129.69
2022-11-17T00:44:09.801Z,100143.78
2022-11-17T00:46:37.649Z,100141.66
2022-11-17T00:49:05.298Z,100136.38
2022-11-17T00:51:32.210Z,100140.31
2022-11-17T00:53:58.778Z,100145.25
2022-11-17T00:56:25.682Z,100148.09
2022-11-17T00:58:52.590Z,100139.41
2022-11-17T01:01:19.511Z,100150.19
2022-11-17T01:03:46.018Z,100135.47
2022-11-17T01:06:15.673Z,100138.22
2022-11-17T01:08:42.618Z,100139.78
2022-11-17T01:11:14.925Z,100134.34
2022-11-17T01:13:42.646Z,100132.34
2022-11-17T01:16:12.719Z,100127.84
2022-11-17T01:18:40.272Z,100137.34
2022-11-17T01:21:16.472Z,100138.34
2022-11-17T01:23:44.328Z,100123.44
2022-11-17T01:26:13.472Z,100113.44
2022-11-17T01:28:40.702Z,100120.00
2022-11-17T01:31:11.418Z,100126.72
2022-11-17T01:33:37.962Z,100121.69
2022-11-17T01:36:12.563Z,100115.06
2022-11-17T01:38:39.233Z,100106.94
2022-11-17T01:41:08.042Z,100100.19
2022-11-17T01:43:38.217Z,100117.63
2022-11-17T01:46:07.717Z,100104.91
2022-11-17T01:48:34.236Z,100100.50
2022-11-17T01:51:00.969Z,100102.38
2022-11-17T01:53:28.455Z,100105.53
2022-11-17T01:55:59.730Z,100104.69
2022-11-17T01:58:31.639Z,100113.59
2022-11-17T02:00:58.142Z,100112.16
2022-11-17T02:03:26.933Z,100109.34
2022-11-17T02:06:11.611Z,100121.53
2022-11-17T02:08:41.094Z,100123.19
2022-11-17T02:11:16.235Z,100113.81
2022-11-17T02:13:42.711Z,100111.06
2022-11-17T02:16:13.645Z,100101.69
2022-11-17T02:18:41.914Z,100102.38
2022-11-17T02:21:11.147Z,100100.97
2022-11-17T02:24:17.137Z,100105.50
2022-11-17T02:27:09.860Z,100096.28
2022-11-17T02:29:42.193Z,100092.16
2022-11-17T02:32:16.903Z,100093.19
2022-11-17T02:35:20.347Z,100079.03
2022-11-17T02:37:57.234Z,100082.69
2022-11-17T02:40:34.266Z,100079.16
2022-11-17T02:43:23.157Z,100082.69
2022-11-17T02:46:00.834Z,100082.44
2022-11-17T02:48:32.472Z,100078.25
2022-11-17T02:50:59.849Z,100070.78
2022-11-17T02:53:28.713Z,100070.47
2022-11-17T02:55:58.581Z,100065.84
2022-11-17T02:58:24.975Z,100063.84
2022-11-17T03:01:09.680Z,100057.84
2022-11-17T03:03:44.975Z,100052.47
2022-11-17T03:06:49.548Z,100042.16
2022-11-17T03:09:28.024Z,100039.44
2022-11-17T03:12:03.555Z,100045.22
2022-11-17T03:14:40.088Z,100052.81
2022-11-17T03:17:21.375Z,100051.09
2022-11-17T03:20:10.757Z,100056.66
2022-11-17T03:22:42.739Z,100055.53
2022-11-17T03:25:14.749Z,100053.13
2022-11-17T03:27:47.251Z,100058.88
2022-11-17T03:30:14.885Z,100060.59
2022-11-17T03:32:46.741Z,100055.53
2022-11-17T03:35:18.853Z,100049.22
2022-11-17T03:37:51.845Z,100060.78
2022-11-17T03:40:22.205Z,100051.41
2022-11-17T03:42:53.913Z,100058.97
2022-11-17T03:45:26.628Z,100060.03
2022-11-17T03:48:03.326Z,100049.53
2022-11-17T03:50:35.052Z,100052.00
2022-11-17T03:53:03.487Z,100044.00
2022-11-17T03:55:41.587Z,100042.28
2022-11-17T03:58:14.376Z,100049.78
2022-11-17T04:00:41.884Z,100040.75
2022-11-17T04:03:08.363Z,100045.09
2022-11-17T04:05:34.770Z,100043.16
2022-11-17T04:08:01.190Z,100042.34
2022-11-17T04:10:27.696Z,100035.69
2022-11-17T04:13:13.136Z,100037.28
2022-11-17T04:15:58.835Z,100037.03
2022-11-17T04:18:25.878Z,100037.03
2022-11-17T04:20:54.515Z,100040.69
2022-11-17T04:23:22.496Z,100040.94
2022-11-17T04:26:12.784Z,100028.38
2022-11-17T04:28:45.716Z,100037.41
2022-11-17T04:31:18.310Z,100029.63
2022-11-17T04:33:49.741Z,100023.50
2022-11-17T04:36:18.455Z,100028.22
2022-11-17T04:38:50.501Z,100015.78
2022-11-17T04:41:36.907Z,100016.41
2022-11-17T04:44:05.401Z,100007.72
2022-11-17T04:46:33.247Z,100014.13
2022-11-17T04:49:01.842Z,100005.84
2022-11-17T04:51:29.750Z,100015.53
2022-11-17T04:53:57.027Z,100008.84
2022-11-17T04:56:25.677Z,100001.41
2022-11-17T04:58:52.515Z,99997.22
2022-11-17T05:01:19.721Z,100003.66
2022-11-17T05:03:50.347Z,100001.53
2022-11-17T05:06:21.295Z,99999.53
2022-11-17T05:08:48.009Z,99994.81
2022-11-17T05:11:34.781Z,100000.84
2022-11-17T05:14:01.770Z,99988.41
2022-11-17T05:16:47.390Z,99994.63
2022-11-17T05:19:18.890Z,99989.22
2022-11-17T05:21:45.326Z,99989.22
2022-11-17T05:24:14.213Z,99978.16
2022-11-17T05:26:42.302Z,99977.66
2022-11-17T05:29:10.036Z,99992.09
2022-11-17T05:31:37.018Z,99987.63
2022-11-17T05:34:05.038Z,99992.34
2022-11-17T05:36:32.124Z,99979.31
2022-11-17T05:38:59.346Z,99980.19
2022-11-17T05:41:26.155Z,99972.41
2022-11-17T05:43:52.653Z,99974.91
2022-11-17T05:46:20.566Z,99969.13
2022-11-17T05:48:49.891Z,99970.56
2022-11-17T05:51:21.520Z,99982.44
2022-11-17T05:53:48.299Z,99983.53
2022-11-17T05:56:33.262Z,99965.53
2022-11-17T05:59:22.113Z,99968.34
2022-11-17T06:02:03.810Z,99963.59
2022-11-17T06:04:30.615Z,99972.47
2022-11-17T06:07:00.407Z,99961.72
2022-11-17T06:09:34.771Z,99960.06
2022-11-17T06:12:05.964Z,99961.16
2022-11-17T06:14:33.520Z,99954.53
2022-11-17T06:17:04.806Z,99949.53
2022-11-17T06:19:40.388Z,99954.00
2022-11-17T06:22:32.477Z,99948.41
2022-11-17T06:25:01.719Z,99944.53
2022-11-17T06:27:30.774Z,99942.34
2022-11-17T06:30:00.544Z,99952.09
2022-11-17T06:32:27.867Z,99939.03
2022-11-17T06:34:56.384Z,99940.69
2022-11-17T06:37:24.852Z,99945.94
2022-11-17T06:39:51.314Z,99934.34
2022-11-17T06:42:18.096Z,99931.84
2022-11-17T06:44:44.465Z,99920.75
2022-11-17T06:47:10.885Z,99920.28
2022-11-17T06:49:37.280Z,99920.81
2022-11-17T06:52:03.730Z,99928.25
2022-11-17T06:54:30.122Z,99922.72
2022-11-17T06:56:57.080Z,99919.13
2022-11-17T06:59:23.460Z,99928.34
2022-11-17T07:01:49.863Z,99925.31
2022-11-17T07:04:16.240Z,99928.97
2022-11-17T07:06:42.646Z,99922.81
2022-11-17T07:09:09.097Z,99924.50
2022-11-17T07:11:38.397Z,99933.34
2022-11-17T07:14:04.798Z,99928.09
2022-11-17T07:16:32.428Z,99936.69
2022-11-17T07:18:59.284Z,99924.25
2022-11-17T07:21:25.762Z,99924.81
2022-11-17T07:23:52.168Z,99926.84
2022-11-17T07:26:18.580Z,99934.81
2022-11-17T07:28:44.966Z,99935.63
2022-11-17T07:31:11.363Z,99936.47
2022-11-17T07:33:37.814Z,99929.31
2022-11-17T07:36:11.580Z,99933.50
2022-11-17T07:38:39.769Z,99924.31
2022-11-17T07:41:08.736Z,99934.00
2022-11-17T07:43:36.262Z,99927.66
2022-11-17T07:46:12.141Z,99926.53
2022-11-17T07:48:39.519Z,99926.53
2022-11-17T07:51:06.926Z,99924.06
2022-11-17T07:53:35.052Z,99929.06
2022-11-17T07:56:09.076Z,99916.91
2022-11-17T07:58:40.017Z,99914.94
2022-11-17T08:01:09.999Z,99910.22
2022-11-17T08:03:36.671Z,99914.63
2022-11-17T08:06:05.548Z,99907.72
2022-11-17T08:08:32.591Z,99894.44
2022-11-17T08:11:07.328Z,99903.31
2022-11-17T08:13:34.442Z,99896.94
2022-11-17T08:16:01.495Z,99889.75
2022-11-17T08:18:29.267Z,99894.19
2022-11-17T08:21:05.765Z,99884.47
2022-11-17T08:23:32.838Z,99900.59
2022-11-17T08:25:59.800Z,99885.59
2022-11-17T08:28:26.267Z,99890.03
2022-11-17T08:30:53.008Z,99882.28
2022-11-17T08:33:19.426Z,99889.50
2022-11-17T08:35:45.847Z,99902.25
2022-11-17T08:38:15.171Z,99893.41
2022-11-17T08:40:42.227Z,99891.22
2022-11-17T08:43:08.692Z,99903.69
2022-11-17T08:45:35.177Z,99897.06
2022-11-17T08:48:01.719Z,99893.16
2022-11-17T08:50:28.154Z,99902.31
2022-11-17T08:52:54.542Z,99899.78
2022-11-17T08:55:20.992Z,99902.59
2022-11-17T08:57:47.470Z,99896.78
2022-11-17T09:00:14.427Z,99899.56
2022-11-17T09:02:40.834Z,99897.00
2022-11-17T09:05:07.822Z,99909.22
2022-11-17T09:07:35.649Z,99920.63
2022-11-17T09:10:04.333Z,99910.06
2022-11-17T09:12:30.814Z,99907.00
2022-11-17T09:14:57.195Z,99903.44
2022-11-17T09:17:23.582Z,99907.59
2022-11-17T09:19:49.984Z,99899.25
2022-11-17T09:22:16.409Z,99906.47
2022-11-17T09:24:42.837Z,99913.97
2022-11-17T09:27:09.255Z,99907.88
2022-11-17T09:29:35.677Z,99908.13
2022-11-17T09:32:02.317Z,99909.78
2022-11-17T09:34:29.378Z,99910.66
2022-11-17T09:36:55.904Z,99909.25
2022-11-17T09:39:22.283Z,99914.28
2022-11-17T09:41:51.373Z,99905.09
2022-11-17T09:44:40.330Z,99911.50
2022-11-17T09:47:31.252Z,99906.25
2022-11-17T09:50:03.598Z,99908.44
2022-11-17T09:52:43.334Z,99909.00
2022-11-17T09:55:33.740Z,99894.84
2022-11-17T09:58:08.389Z,99892.38
2022-11-17T10:00:37.162Z,99898.47
2022-11-17T10:03:14.171Z,99886.81
2022-11-17T10:05:40.621Z,99892.91
2022-11-17T10:08:11.628Z,99882.94
2022-11-17T10:10:50.542Z,99890.44
2022-11-17T10:13:25.158Z,99886.84
2022-11-17T10:15:56.034Z,99891.28
2022-11-17T10:18:22.506Z,99881.00
2022-11-17T10:20:49.029Z,99879.63
2022-11-17T10:23:20.798Z,99878.22
2022-11-17T10:25:49.284Z,99868.19
2022-11-17T10:28:28.191Z,99865.72
2022-11-17T10:30:57.198Z,99861.56
2022-11-17T10:33:39.011Z,99853.81
2022-11-17T10:36:29.759Z,99853.53
2022-11-17T10:38:58.956Z,99852.97
2022-11-17T10:41:42.554Z,99855.22
2022-11-17T10:44:26.447Z,99860.50
2022-11-17T10:47:04.140Z,99854.66
2022-11-17T10:49:35.681Z,99849.38
2022-11-17T10:52:11.372Z,99853.00
2022-11-17T10:54:38.468Z,99854.94
2022-11-17T10:57:17.788Z,99851.91
2022-11-17T10:59:56.725Z,99856.34
2022-11-17T11:02:38.239Z,99849.66
2022-11-17T11:05:10.641Z,99843.00
2022-11-17T11:07:38.045Z,99838.03
2022-11-17T11:10:16.677Z,99825.84
2022-11-17T11:12:50.248Z,99828.06
2022-11-17T11:15:23.633Z,99813.06
2022-11-17T11:17:50.878Z,99816.13
2022-11-17T11:20:21.192Z,99816.41
2022-11-17T11:23:26.955Z,99802.25
2022-11-17T11:26:01.229Z,99803.09
2022-11-17T11:29:05.066Z,99806.72
2022-11-17T11:31:45.701Z,99791.72
2022-11-17T11:34:34.316Z,99791.44
2022-11-17T11:37:09.717Z,99785.59
2022-11-17T11:40:15.345Z,99798.38
2022-11-17T11:42:57.728Z,99792.28
2022-11-17T11:45:39.362Z,99795.34
2022-11-17T11:48:15.345Z,99792.00
2022-11-17T11:50:58.800Z,99784.25
2022-11-17T11:53:46.109Z,99804.22
2022-11-17T11:56:18.658Z,99790.06
2022-11-17T11:58:51.495Z,99793.38
2022-11-17T12:01:20.755Z,99793.94
2022-11-17T12:04:05.981Z,99795.63
2022-11-17T12:06:47.399Z,99792.31
2022-11-17T12:09:22.920Z,99795.91
2022-11-17T12:12:02.949Z,99797.56
2022-11-17T12:14:35.310Z,99788.97
2022-11-17T12:17:04.433Z,99789.78
2022-11-17T12:19:54.316Z,99770.09
2022-11-17T12:22:29.605Z,99783.69
2022-11-17T12:25:05.790Z,99784.25
2022-11-17T12:27:34.881Z,99777.06
2022-11-17T12:30:03.610Z,99780.91
2022-11-17T12:32:44.986Z,99782.03
2022-11-17T12:35:32.721Z,99775.38
2022-11-17T12:38:15.236Z,99777.59
2022-11-17T12:40:47.710Z,99769.81
2022-11-17T12:43:27.723Z,99770.38
2022-11-17T12:45:59.881Z,99768.16
2022-11-17T12:48:34.302Z,99777.06
2022-11-17T12:51:26.585Z,99774.28
2022-11-17T12:54:06.460Z,99769.25
2022-11-17T12:57:03.212Z,99775.38
2022-11-17T13:00:07.379Z,99780.66
2022-11-17T13:02:59.978Z,99780.09
2022-11-17T13:05:28.487Z,99777.59
2022-11-17T13:08:09.940Z,99773.16
2022-11-17T13:10:36.519Z,99769.81
2022-11-17T13:13:10.954Z,99765.97
2022-11-17T13:15:38.018Z,99771.78
2022-11-17T13:18:10.946Z,99762.06
2022-11-17T13:20:38.696Z,99763.72
2022-11-17T13:23:23.937Z,99761.78
2022-11-17T13:25:50.744Z,99755.13
2022-11-17T13:28:31.742Z,99761.78
2022-11-17T13:31:00.087Z,99758.72
2022-11-17T13:33:27.375Z,99763.16
2022-11-17T13:36:17.573Z,99751.53
2022-11-17T13:38:52.222Z,99750.13
2022-11-17T13:41:21.719Z,99745.97
2022-11-17T13:43:49.585Z,99765.41
2022-11-17T13:46:15.989Z,99763.44
2022-11-17T13:48:47.258Z,99752.63
2022-11-17T13:51:19.558Z,99751.78
2022-11-17T13:54:02.837Z,99743.75
2022-11-17T13:56:39.145Z,99748.75
2022-11-17T13:59:33.746Z,99752.09
2022-11-17T14:02:21.285Z,99752.06
2022-11-17T14:05:18.407Z,99745.69
2022-11-17T14:07:45.867Z,99744.59
2022-11-17T14:10:21.353Z,99762.88
2022-11-17T14:12:49.536Z,99740.69
2022-11-17T14:15:22.871Z,99743.19
2022-11-17T14:17:58.283Z,99744.88
2022-11-17T14:20:24.667Z,99745.13
2022-11-17T14:23:12.526Z,99734.31
2022-11-17T14:25:44.275Z,99747.06
2022-11-17T14:28:15.044Z,99751.78
2022-11-17T14:30:41.837Z,99740.41
2022-11-17T14:33:13.390Z,99739.56
2022-11-17T14:35:40.456Z,99758.16
2022-11-17T14:38:10.048Z,99748.72
2022-11-17T14:40:36.501Z,99747.88
2022-11-17T14:43:02.884Z,99748.72
2022-11-17T14:45:29.762Z,99753.16
2022-11-17T14:47:56.429Z,99753.97
2022-11-17T14:50:23.026Z,99754.25
2022-11-17T14:52:49.410Z,99752.56
2022-11-17T14:55:15.894Z,99752.31
2022-11-17T14:57:42.470Z,99748.41
2022-11-17T15:00:13.436Z,99749.78
2022-11-17T15:02:42.638Z,99747.00
2022-11-17T15:05:09.449Z,99751.97
2022-11-17T15:07:35.895Z,99747.25
2022-11-17T15:10:03.632Z,99752.50
2022-11-17T15:12:30.032Z,99746.41
2022-11-17T15:14:59.112Z,99753.88
2022-11-17T15:17:27.271Z,99756.34
2022-11-17T15:19:54.451Z,99754.41
2022-11-17T15:22:21.167Z,99756.63
2022-11-17T15:24:47.619Z,99754.69
2022-11-17T15:27:14.349Z,99748.28
2022-11-17T15:29:40.731Z,99749.16
2022-11-17T15:32:07.968Z,99760.50
2022-11-17T15:34:37.689Z,99751.28
2022-11-17T15:37:04.270Z,99754.63
2022-11-17T15:39:30.717Z,99757.09
2022-11-17T15:41:57.093Z,99747.38
2022-11-17T15:44:23.459Z,99753.50
2022-11-17T15:46:49.871Z,99747.63
2022-11-17T15:49:16.572Z,99762.25
2022-11-17T15:51:43.241Z,99752.31
2022-11-17T15:54:18.567Z,99755.63
2022-11-17T15:56:46.247Z,99756.16
2022-11-17T15:59:12.704Z,99751.13
2022-11-17T16:01:40.103Z,99754.44
2022-11-17T16:04:12.001Z,99761.63
2022-11-17T16:06:43.039Z,99761.38
2022-11-17T16:09:10.308Z,99758.03
2022-11-17T16:11:36.918Z,99753.06
2022-11-17T16:14:04.438Z,99755.50
2022-11-17T16:16:34.258Z,99765.78
2022-11-17T16:19:00.720Z,99751.09
2022-11-17T16:21:27.243Z,99759.34
2022-11-17T16:23:55.843Z,99761.56
2022-11-17T16:26:24.985Z,99761.56
2022-11-17T16:29:02.581Z,99757.34
2022-11-17T16:31:31.643Z,99761.25
2022-11-17T16:34:00.297Z,99759.03
2022-11-17T16:36:34.614Z,99760.97
2022-11-17T16:39:05.369Z,99755.94
2022-11-17T16:41:34.486Z,99759.53
2022-11-17T16:44:01.791Z,99760.09
2022-11-17T16:46:30.289Z,99754.00
2022-11-17T16:49:01.848Z,99757.06
2022-11-17T16:51:28.348Z,99754.88
2022-11-17T16:53:57.051Z,99752.59
2022-11-17T16:56:24.017Z,99751.81
2022-11-17T16:58:51.035Z,99754.56
2022-11-17T17:01:21.184Z,99754.56
2022-11-17T17:03:47.598Z,99754.63
2022-11-17T17:06:16.968Z,99754.81
2022-11-17T17:08:43.940Z,99757.06
2022-11-17T17:11:12.925Z,99757.63
2022-11-17T17:13:39.994Z,99755.41
2022-11-17T17:16:07.923Z,99760.09
2022-11-17T17:18:35.257Z,99751.47
2022-11-17T17:21:02.021Z,99756.47
2022-11-17T17:23:29.007Z,99754.81
2022-11-17T17:26:01.990Z,99749.78
2022-11-17T17:28:36.815Z,99758.13
2022-11-17T17:31:04.164Z,99758.38
2022-11-17T17:33:35.263Z,99752.84
2022-11-17T17:36:09.058Z,99752.03
2022-11-17T17:38:35.834Z,99762.84
2022-11-17T17:41:16.563Z,99767.25
2022-11-17T17:43:44.743Z,99764.75
2022-11-17T17:46:15.715Z,99762.56
2022-11-17T17:48:44.379Z,99752.03
2022-11-17T17:51:17.876Z,99770.56
2022-11-17T17:53:44.637Z,99761.97
2022-11-17T17:56:13.189Z,99766.13
2022-11-17T17:58:41.132Z,99768.88
2022-11-17T18:01:10.076Z,99767.50
2022-11-17T18:03:37.268Z,99769.41
2022-11-17T18:06:03.875Z,99774.09
2022-11-17T18:08:34.675Z,99779.09
2022-11-17T18:11:01.810Z,99772.72
2022-11-17T18:13:37.567Z,99773.25
2022-11-17T18:16:06.354Z,99770.75
2022-11-17T18:18:33.711Z,99769.13
2022-11-17T18:21:08.889Z,99769.13
2022-11-17T18:23:36.565Z,99772.44
2022-11-17T18:26:19.373Z,99771.06
2022-11-17T18:28:53.627Z,99772.38
2022-11-17T18:31:21.646Z,99764.94
2022-11-17T18:33:56.510Z,99776.25
2022-11-17T18:36:23.331Z,99769.25
2022-11-17T18:38:51.006Z,99782.31
2022-11-17T18:41:17.726Z,99780.13
2022-11-17T18:43:44.432Z,99779.59
2022-11-17T18:46:13.540Z,99772.56
2022-11-17T18:48:42.066Z,99780.91
2022-11-17T18:51:21.223Z,99777.31
2022-11-17T18:53:52.936Z,99782.25
2022-11-17T18:56:25.166Z,99782.25
2022-11-17T18:58:52.185Z,99786.44
2022-11-17T19:01:23.388Z,99780.06
2022-11-17T19:03:52.430Z,99780.56
2022-11-17T19:06:20.539Z,99785.28
2022-11-17T19:08:48.115Z,99785.28
2022-11-17T19:11:16.328Z,99781.97
2022-11-17T19:13:43.618Z,99789.38
2022-11-17T19:16:21.677Z,99789.69
2022-11-17T19:18:49.487Z,99783.00
2022-11-17T19:21:21.234Z,99786.88
2022-11-17T19:23:51.783Z,99786.22
2022-11-17T19:26:20.474Z,99792.03
2022-11-17T19:28:47.772Z,99782.63
2022-11-17T19:31:17.205Z,99781.56
2022-11-17T19:33:45.039Z,99797.00
2022-11-17T19:36:13.773Z,99795.38
2022-11-17T19:38:40.716Z,99802.78
2022-11-17T19:41:10.198Z,99803.88
2022-11-17T19:43:43.404Z,99804.47
2022-11-17T19:46:14.013Z,99806.59
2022-11-17T19:48:42.293Z,99799.72
2022-11-17T19:51:29.977Z,99795.94
2022-11-17T19:53:58.306Z,99804.50
2022-11-17T19:56:25.595Z,99797.56
2022-11-17T19:58:53.813Z,99804.47
2022-11-17T20:01:22.780Z,99802.28
2022-11-17T20:03:50.220Z,99810.25
2022-11-17T20:06:19.429Z,99802.81
2022-11-17T20:08:46.797Z,99810.81
2022-11-17T20:11:19.564Z,99815.78
2022-11-17T20:13:46.516Z,99804.19
2022-11-17T20:16:15.867Z,99802.31
2022-11-17T20:18:43.750Z,99808.81
2022-11-17T20:21:11.762Z,99812.16
2022-11-17T20:23:39.305Z,99807.75
2022-11-17T20:26:08.017Z,99818.75
2022-11-17T20:28:36.263Z,99799.34
2022-11-17T20:31:11.500Z,99808.16
2022-11-17T20:33:39.092Z,99798.47
2022-11-17T20:36:06.533Z,99806.16
2022-11-17T20:38:33.229Z,99819.47
2022-11-17T20:41:00.564Z,99814.53
2022-11-17T20:43:27.786Z,99820.88
2022-11-17T20:45:55.220Z,99807.88
2022-11-17T20:48:23.388Z,99816.97
2022-11-17T20:51:04.677Z,99819.69
2022-11-17T20:53:35.652Z,99822.22
2022-11-17T20:56:04.746Z,99818.84
2022-11-17T20:58:32.456Z,99828.44
2022-11-17T21:00:59.372Z,99831.44
2022-11-17T21:03:31.889Z,99831.97
2022-11-17T21:06:05.912Z,99820.91
2022-11-17T21:08:38.518Z,99825.81
2022-11-17T21:11:11.038Z,99832.56
2022-11-17T21:13:41.375Z,99829.09
2022-11-17T21:16:18.553Z,99830.25
2022-11-17T21:18:59.473Z,99833.38
2022-11-17T21:21:26.124Z,99839.06
2022-11-17T21:23:54.425Z,99837.88
2022-11-17T21:26:24.955Z,99844.81
2022-11-17T21:28:52.483Z,99840.41
2022-11-17T21:31:26.098Z,99835.19
2022-11-17T21:33:55.129Z,99843.69
2022-11-17T21:36:23.180Z,99842.56
2022-11-17T21:38:49.784Z,99836.75
2022-11-17T21:41:23.112Z,99846.88
2022-11-17T21:43:51.051Z,99850.69
2022-11-17T21:46:22.754Z,99849.41
2022-11-17T21:48:49.979Z,99847.28
2022-11-17T21:51:22.001Z,99853.38
2022-11-17T21:53:53.063Z,99850.88
2022-11-17T21:56:19.503Z,99853.91
2022-11-17T21:58:46.102Z,99855.75
2022-11-17T22:01:14.961Z,99860.25
2022-11-17T22:03:42.483Z,99867.06
2022-11-17T22:06:10.323Z,99865.41
2022-11-17T22:08:42.180Z,99854.34
2022-11-17T22:11:11.330Z,99856.59
2022-11-17T22:13:38.321Z,99857.94
2022-11-17T22:16:07.442Z,99854.59
2022-11-17T22:18:34.134Z,99858.97
2022-11-17T22:21:00.690Z,99857.88
2022-11-17T22:23:28.346Z,99852.03
2022-11-17T22:26:02.785Z,99854.19
2022-11-17T22:28:29.193Z,99862.75
2022-11-17T22:30:55.938Z,99857.47
2022-11-17T22:33:23.288Z,99872.13
2022-11-17T22:35:50.125Z,99864.50
2022-11-17T22:38:16.990Z,99873.94
2022-11-17T22:40:43.384Z,99876.63
2022-11-17T22:43:14.611Z,99886.31
2022-11-17T22:45:41.590Z,99878.69
2022-11-17T22:48:08.250Z,99876.44
2022-11-17T22:50:36.038Z,99885.25
2022-11-17T22:53:02.707Z,99891.91
2022-11-17T22:55:29.375Z,99880.94
2022-11-17T22:57:55.776Z,99894.69
2022-11-17T23:00:22.236Z,99890.38
2022-11-17T23:02:48.672Z,99899.63
2022-11-17T23:05:15.201Z,99885.75
2022-11-17T23:07:41.765Z,99882.41
2022-11-17T23:10:09.318Z,99878.97
2022-11-17T23:12:35.721Z,99880.09
2022-11-17T23:15:02.131Z,99884.25
2022-11-17T23:17:28.514Z,99893.97
2022-11-17T23:19:54.896Z,99890.63
2022-11-17T23:22:21.336Z,99887.94
2022-11-17T23:24:47.740Z,99883.75
2022-11-17T23:27:14.143Z,99879.25
2022-11-17T23:29:40.525Z,99880.91
2022-11-17T23:32:06.918Z,99886.44
2022-11-17T23:34:33.295Z,99884.44
2022-11-17T23:37:03.500Z,99893.91
2022-11-17T23:39:30.434Z,99899.50
2022-11-17T23:41:56.810Z,99899.41
2022-11-17T23:44:23.194Z,99906.34
2022-11-17T23:46:49.579Z,99909.63
2022-11-17T23:49:16.325Z,99914.06
2022-11-17T23:51:43.114Z,99911.81
2022-11-17T23:54:13.134Z,99917.25
2022-11-17T23:56:39.865Z,99909.38
2022-11-17T23:59:07.979Z,99920.13
